createdAt,value
2019-04-06T00:01:59.761Z,8.98
2019-04-06T00:04:28.090Z,8.96
2019-04-06T00:06:56.466Z,8.94
2019-04-06T00:09:24.834Z,8.98
2019-04-06T00:11:53.229Z,9.15
2019-04-06T00:14:21.606Z,9.14
2019-04-06T00:16:49.966Z,9.19
2019-04-06T00:19:18.295Z,9.07
2019-04-06T00:21:46.565Z,9.01
2019-04-06T00:24:14.887Z,8.97
2019-04-06T00:26:43.197Z,8.99
2019-04-06T00:29:11.892Z,8.85
2019-04-06T00:31:58.211Z,8.91
2019-04-06T00:34:26.606Z,8.94
2019-04-06T00:36:54.969Z,8.75
2019-04-06T00:39:23.305Z,8.70
2019-04-06T00:41:51.790Z,8.65
2019-04-06T00:44:20.097Z,8.47
2019-04-06T00:46:48.497Z,8.50
2019-04-06T00:49:16.798Z,8.57
2019-04-06T00:51:45.280Z,8.43
2019-04-06T00:54:13.594Z,8.48
2019-04-06T00:56:42.200Z,8.47
2019-04-06T00:59:10.619Z,8.47
2019-04-06T01:01:39.298Z,8.54
2019-04-06T01:04:07.982Z,8.48
2019-04-06T01:06:36.489Z,8.41
2019-04-06T01:09:08.019Z,8.44
2019-04-06T01:11:36.355Z,8.43
2019-04-06T01:14:05.024Z,8.49
2019-04-06T01:16:33.342Z,8.50
2019-04-06T01:19:01.659Z,8.56
2019-04-06T01:21:30.050Z,8.83
2019-04-06T01:23:58.402Z,8.81
2019-04-06T01:26:26.722Z,8.88
2019-04-06T01:28:55.169Z,8.92
2019-04-06T01:31:23.875Z,8.95
2019-04-06T01:33:52.311Z,9.07
2019-04-06T01:36:20.619Z,9.07
2019-04-06T01:38:50.271Z,9.24
2019-04-06T01:41:18.586Z,9.26
2019-04-06T01:43:46.906Z,9.39
2019-04-06T01:46:15.217Z,9.43
2019-04-06T01:48:43.598Z,9.54
2019-04-06T01:51:11.976Z,9.56
2019-04-06T01:53:40.306Z,9.59
2019-04-06T01:56:17.912Z,9.64
2019-04-06T01:58:39.299Z,9.65
2019-04-06T02:01:25.394Z,9.60
2019-04-06T02:03:53.782Z,9.67
2019-04-06T02:06:22.122Z,9.75
2019-04-06T02:08:50.612Z,9.81
2019-04-06T02:11:19.284Z,9.80
2019-04-06T02:13:47.649Z,9.87
2019-04-06T02:16:16.343Z,9.90
2019-04-06T02:18:44.644Z,9.77
2019-04-06T02:21:13.291Z,9.79
2019-04-06T02:23:41.592Z,9.69
2019-04-06T02:26:10.211Z,9.52
2019-04-06T02:28:38.543Z,9.49
2019-04-06T02:31:08.460Z,9.44
2019-04-06T02:33:47.373Z,9.64
2019-04-06T02:36:20.212Z,9.55
2019-04-06T02:38:50.222Z,9.56
2019-04-06T02:41:20.177Z,9.52
2019-04-06T02:43:48.571Z,9.48
2019-04-06T02:46:16.943Z,9.66
2019-04-06T02:48:45.270Z,9.75
2019-04-06T02:51:13.582Z,9.70
2019-04-06T02:53:41.957Z,9.57
2019-04-06T02:56:10.593Z,9.63
2019-04-06T02:58:38.895Z,9.81
2019-04-06T03:01:07.298Z,9.91
2019-04-06T03:03:35.682Z,9.91
2019-04-06T03:06:04.581Z,9.88
2019-04-06T03:08:32.901Z,9.81
2019-04-06T03:11:01.634Z,9.73
2019-04-06T03:13:29.947Z,9.73
2019-04-06T03:15:58.640Z,9.89
2019-04-06T03:18:27.034Z,10.44
2019-04-06T03:20:55.349Z,9.99
2019-04-06T03:23:24.930Z,9.93
2019-04-06T03:25:54.385Z,9.96
2019-04-06T03:28:23.121Z,9.95
2019-04-06T03:30:51.417Z,9.86
2019-04-06T03:33:20.046Z,9.80
2019-04-06T03:35:50.379Z,10.03
2019-04-06T03:38:18.659Z,9.72
2019-04-06T03:40:46.983Z,9.69
2019-04-06T03:43:15.344Z,9.67
2019-04-06T03:45:43.728Z,9.68
2019-04-06T03:48:12.372Z,9.67
2019-04-06T03:50:41.074Z,9.69
2019-04-06T03:53:09.400Z,9.81
2019-04-06T03:55:37.913Z,9.90
2019-04-06T03:58:06.536Z,9.88
2019-04-06T04:00:34.852Z,9.91
2019-04-06T04:03:03.161Z,9.97
2019-04-06T04:05:31.572Z,9.97
2019-04-06T04:07:59.960Z,10.01
2019-04-06T04:10:34.110Z,10.00
2019-04-06T04:13:02.541Z,10.02
2019-04-06T04:15:30.979Z,9.97
2019-04-06T04:17:59.510Z,10.00
2019-04-06T04:20:28.026Z,10.04
2019-04-06T04:22:56.412Z,10.08
2019-04-06T04:25:24.863Z,10.24
2019-04-06T04:27:53.195Z,10.24
2019-04-06T04:30:32.185Z,10.21
2019-04-06T04:32:51.556Z,10.05
2019-04-06T04:35:19.938Z,10.01
2019-04-06T04:37:48.550Z,10.10
2019-04-06T04:40:17.316Z,10.11
2019-04-06T04:42:45.745Z,10.09
2019-04-06T04:45:14.646Z,10.03
2019-04-06T04:47:43.160Z,10.03
2019-04-06T04:50:11.734Z,10.02
2019-04-06T04:52:40.051Z,10.09
2019-04-06T04:55:08.442Z,10.06
2019-04-06T04:57:41.139Z,10.15
2019-04-06T05:00:07.952Z,10.15
2019-04-06T05:02:36.217Z,10.18
2019-04-06T05:05:06.308Z,10.29
2019-04-06T05:07:35.052Z,10.30
2019-04-06T05:10:04.271Z,10.31
2019-04-06T05:12:32.655Z,10.34
2019-04-06T05:15:10.225Z,10.31
2019-04-06T05:17:38.602Z,10.39
2019-04-06T05:20:07.871Z,10.33
2019-04-06T05:22:36.181Z,10.36
2019-04-06T05:25:05.933Z,10.45
2019-04-06T05:27:34.325Z,10.49
2019-04-06T05:30:03.014Z,10.59
2019-04-06T05:32:31.686Z,10.61
2019-04-06T05:35:00.000Z,10.59
2019-04-06T05:37:28.338Z,10.53
2019-04-06T05:39:56.650Z,10.53
2019-04-06T05:42:24.966Z,10.76
2019-04-06T05:44:54.287Z,10.78
2019-04-06T05:47:22.596Z,10.63
2019-04-06T05:49:50.924Z,10.77
2019-04-06T05:52:19.279Z,10.72
2019-04-06T05:54:47.634Z,10.74
2019-04-06T05:57:15.946Z,10.69
2019-04-06T05:59:44.562Z,10.61
2019-04-06T06:02:12.895Z,10.87
2019-04-06T06:04:41.431Z,11.00
2019-04-06T06:07:09.722Z,10.99
2019-04-06T06:09:38.397Z,10.95
2019-04-06T06:12:07.964Z,11.08
2019-04-06T06:14:36.447Z,11.06
2019-04-06T06:17:05.180Z,11.30
2019-04-06T06:19:33.530Z,11.22
2019-04-06T06:22:01.903Z,11.33
2019-04-06T06:24:30.232Z,11.48
2019-04-06T06:26:58.770Z,11.48
2019-04-06T06:29:27.543Z,11.63
2019-04-06T06:31:55.945Z,11.72
2019-04-06T06:34:24.260Z,11.73
2019-04-06T06:36:52.590Z,11.66
2019-04-06T06:39:20.913Z,11.78
2019-04-06T06:41:49.311Z,11.84
2019-04-06T06:44:17.949Z,12.09
2019-04-06T06:46:46.343Z,11.81
2019-04-06T06:49:14.659Z,11.76
2019-04-06T06:51:43.063Z,11.55
2019-04-06T06:54:11.480Z,11.97
2019-04-06T06:56:39.840Z,11.96
2019-04-06T06:59:08.114Z,11.95
2019-04-06T07:01:36.421Z,12.18
2019-04-06T07:04:05.023Z,12.07
2019-04-06T07:06:33.422Z,12.07
2019-04-06T07:09:01.759Z,12.62
2019-04-06T07:11:30.187Z,12.28
2019-04-06T07:13:58.591Z,12.07
2019-04-06T07:16:26.915Z,12.07
2019-04-06T07:18:55.229Z,12.20
2019-04-06T07:21:23.561Z,12.42
2019-04-06T07:23:51.873Z,11.91
2019-04-06T07:26:20.203Z,12.44
2019-04-06T07:28:48.507Z,12.53
2019-04-06T07:31:16.842Z,12.58
2019-04-06T07:33:45.158Z,12.49
2019-04-06T07:36:13.471Z,13.07
2019-04-06T07:38:41.797Z,13.04
2019-04-06T07:41:10.149Z,13.00
2019-04-06T07:43:38.447Z,13.60
2019-04-06T07:46:06.754Z,12.70
2019-04-06T07:48:35.307Z,13.52
2019-04-06T07:51:03.705Z,13.04
2019-04-06T07:53:32.023Z,13.48
2019-04-06T07:56:00.339Z,13.54
2019-04-06T07:58:28.666Z,13.77
2019-04-06T08:00:56.997Z,13.91
2019-04-06T08:03:25.305Z,14.15
2019-04-06T08:05:53.803Z,13.96
2019-04-06T08:08:22.367Z,13.95
2019-04-06T08:10:50.730Z,14.30
2019-04-06T08:13:19.037Z,14.67
2019-04-06T08:15:47.468Z,14.91
2019-04-06T08:18:15.785Z,15.10
2019-04-06T08:20:44.574Z,15.04
2019-04-06T08:23:13.036Z,15.01
2019-04-06T08:25:41.448Z,17.89
2019-04-06T08:28:09.843Z,15.82
2019-04-06T08:30:45.422Z,15.73
2019-04-06T08:33:08.259Z,15.44
2019-04-06T08:35:36.896Z,15.60
2019-04-06T08:38:05.449Z,14.69
2019-04-06T08:40:34.235Z,14.36
2019-04-06T08:43:02.580Z,14.79
2019-04-06T08:45:30.899Z,14.57
2019-04-06T08:47:59.451Z,14.45
2019-04-06T08:50:27.942Z,14.91
2019-04-06T08:52:56.753Z,14.29
2019-04-06T08:55:25.044Z,14.35
2019-04-06T08:57:53.421Z,14.66
2019-04-06T09:00:21.876Z,14.52
2019-04-06T09:02:50.196Z,14.50
2019-04-06T09:05:18.519Z,14.32
2019-04-06T09:07:46.943Z,13.92
2019-04-06T09:10:15.507Z,15.01
2019-04-06T09:12:44.336Z,14.86
2019-04-06T09:15:13.098Z,15.11
2019-04-06T09:17:41.474Z,15.22
2019-04-06T09:20:10.263Z,15.28
2019-04-06T09:22:38.906Z,15.08
2019-04-06T09:25:07.927Z,14.62
2019-04-06T09:27:36.274Z,15.28
2019-04-06T09:30:07.130Z,14.89
2019-04-06T09:32:35.655Z,14.83
2019-04-06T09:35:05.004Z,15.01
2019-04-06T09:37:33.770Z,15.62
2019-04-06T09:40:02.073Z,15.37
2019-04-06T09:42:30.903Z,14.73
2019-04-06T09:45:16.178Z,15.29
2019-04-06T09:47:46.632Z,16.41
2019-04-06T09:50:28.844Z,15.08
2019-04-06T09:53:01.749Z,15.22
2019-04-06T09:55:43.646Z,15.96
2019-04-06T09:58:16.497Z,16.08
2019-04-06T10:00:52.151Z,16.65
2019-04-06T10:03:22.275Z,16.91
2019-04-06T10:05:55.108Z,15.16
2019-04-06T10:08:37.712Z,15.55
2019-04-06T10:11:07.884Z,15.41
2019-04-06T10:13:40.695Z,15.20
2019-04-06T10:16:22.583Z,15.11
2019-04-06T10:18:52.888Z,15.40
2019-04-06T10:21:25.400Z,15.84
2019-04-06T10:24:04.798Z,17.05
2019-04-06T10:26:51.153Z,15.74
2019-04-06T10:29:33.212Z,16.09
2019-04-06T10:32:05.903Z,16.13
2019-04-06T10:34:45.249Z,17.66
2019-04-06T10:37:30.354Z,17.39
2019-04-06T10:40:00.902Z,18.21
2019-04-06T10:42:39.765Z,17.17
2019-04-06T10:45:27.874Z,17.16
2019-04-06T10:47:58.370Z,17.72
2019-04-06T10:50:44.347Z,18.30
2019-04-06T10:53:16.826Z,18.40
2019-04-06T10:55:46.796Z,18.55
2019-04-06T10:58:17.056Z,18.08
2019-04-06T11:00:50.193Z,18.08
2019-04-06T11:03:32.001Z,18.17
2019-04-06T11:06:04.660Z,17.05
2019-04-06T11:08:47.281Z,17.39
2019-04-06T11:11:20.778Z,17.64
2019-04-06T11:13:51.141Z,16.83
2019-04-06T11:16:36.550Z,17.74
2019-04-06T11:19:06.568Z,18.19
2019-04-06T11:21:37.278Z,18.19
2019-04-06T11:24:22.498Z,17.71
2019-04-06T11:26:55.322Z,17.40
2019-04-06T11:29:25.300Z,18.68
2019-04-06T11:32:01.383Z,17.73
2019-04-06T11:34:47.782Z,19.08
2019-04-06T11:37:20.974Z,20.47
2019-04-06T11:39:54.088Z,22.73
2019-04-06T11:42:40.499Z,22.01
2019-04-06T11:45:11.600Z,21.08
2019-04-06T11:47:50.572Z,20.66
2019-04-06T11:50:35.874Z,19.50
2019-04-06T11:53:16.090Z,19.85
2019-04-06T11:55:49.326Z,19.43
2019-04-06T11:58:19.519Z,20.24
2019-04-06T12:01:06.134Z,22.54
2019-04-06T12:03:49.886Z,22.82
2019-04-06T12:06:22.829Z,20.78
2019-04-06T12:08:59.533Z,18.77
2019-04-06T12:11:36.064Z,20.74
2019-04-06T12:14:22.470Z,19.56
2019-04-06T12:16:55.264Z,19.73
2019-04-06T12:19:27.893Z,21.23
2019-04-06T12:22:03.571Z,20.03
2019-04-06T12:24:45.664Z,23.75
2019-04-06T12:27:18.506Z,25.86
2019-04-06T12:29:48.830Z,24.68
2019-04-06T12:32:21.553Z,22.63
2019-04-06T12:35:03.537Z,24.98
2019-04-06T12:37:39.489Z,24.56
2019-04-06T12:40:12.654Z,24.03
2019-04-06T12:42:51.615Z,23.66
2019-04-06T12:45:21.728Z,23.83
2019-04-06T12:48:07.184Z,24.26
2019-04-06T12:50:37.411Z,23.53
2019-04-06T12:53:26.105Z,24.67
2019-04-06T12:55:58.891Z,24.80
2019-04-06T12:58:31.690Z,24.65
2019-04-06T13:01:04.309Z,23.61
2019-04-06T13:03:37.016Z,23.63
2019-04-06T13:06:10.133Z,24.05
2019-04-06T13:08:43.271Z,25.63
2019-04-06T13:11:13.687Z,22.53
2019-04-06T13:13:46.559Z,21.81
2019-04-06T13:16:17.775Z,24.21
2019-04-06T13:19:04.382Z,24.36
2019-04-06T13:21:36.961Z,23.03
2019-04-06T13:24:10.107Z,21.34
2019-04-06T13:26:46.071Z,22.85
2019-04-06T13:29:29.228Z,24.82
2019-04-06T13:32:15.575Z,24.05
2019-04-06T13:34:46.372Z,22.15
2019-04-06T13:37:32.871Z,22.86
2019-04-06T13:40:08.243Z,21.89
2019-04-06T13:42:38.189Z,20.75
2019-04-06T13:45:22.845Z,23.09
2019-04-06T13:48:08.954Z,23.85
2019-04-06T13:50:41.899Z,24.47
2019-04-06T13:53:14.801Z,23.88
2019-04-06T13:56:00.871Z,24.74
2019-04-06T13:58:48.884Z,24.69
2019-04-06T14:01:21.541Z,25.83
2019-04-06T14:03:54.589Z,21.43
2019-04-06T14:06:33.676Z,22.76
2019-04-06T14:09:03.563Z,21.48
2019-04-06T14:11:33.540Z,24.73
2019-04-06T14:14:15.371Z,24.73
2019-04-06T14:17:02.225Z,23.55
2019-04-06T14:19:47.273Z,23.27
2019-04-06T14:22:17.387Z,24.72
2019-04-06T14:25:02.579Z,24.81
2019-04-06T14:27:32.700Z,24.69
2019-04-06T14:30:08.509Z,24.73
2019-04-06T14:32:54.627Z,21.53
2019-04-06T14:35:27.893Z,23.89
2019-04-06T14:37:57.893Z,23.26
2019-04-06T14:40:43.729Z,26.25
2019-04-06T14:43:30.113Z,25.74
2019-04-06T14:46:03.129Z,26.31
2019-04-06T14:48:36.087Z,25.46
2019-04-06T14:51:06.033Z,25.71
2019-04-06T14:53:39.121Z,25.54
2019-04-06T14:56:25.548Z,23.99
2019-04-06T14:59:04.019Z,25.88
2019-04-06T15:01:42.143Z,23.61
2019-04-06T15:04:26.189Z,22.66
2019-04-06T15:07:11.598Z,23.35
2019-04-06T15:09:37.020Z,24.95
2019-04-06T15:12:16.275Z,24.97
2019-04-06T15:14:49.350Z,25.79
2019-04-06T15:17:22.238Z,25.12
2019-04-06T15:19:52.180Z,25.15
2019-04-06T15:22:27.878Z,24.24
2019-04-06T15:25:06.382Z,26.28
2019-04-06T15:27:54.405Z,25.31
2019-04-06T15:30:36.141Z,26.07
2019-04-06T15:33:22.331Z,24.36
2019-04-06T15:35:52.272Z,24.16
2019-04-06T15:38:23.647Z,24.72
2019-04-06T15:40:59.544Z,24.76
2019-04-06T15:43:29.535Z,23.22
2019-04-06T15:45:59.497Z,21.98
2019-04-06T15:48:36.982Z,23.88
2019-04-06T15:51:07.429Z,24.79
2019-04-06T15:53:46.356Z,21.59
2019-04-06T15:56:16.290Z,23.06
2019-04-06T15:58:46.238Z,24.29
2019-04-06T16:01:22.179Z,21.93
2019-04-06T16:04:08.558Z,21.52
2019-04-06T16:06:41.565Z,22.37
2019-04-06T16:09:14.228Z,21.24
2019-04-06T16:12:02.539Z,21.28
2019-04-06T16:14:41.917Z,21.49
2019-04-06T16:17:21.514Z,20.57
2019-04-06T16:19:56.017Z,22.10
2019-04-06T16:22:29.148Z,23.47
2019-04-06T16:24:59.147Z,22.06
2019-04-06T16:27:29.114Z,22.03
2019-04-06T16:29:59.477Z,22.76
2019-04-06T16:32:37.885Z,22.78
2019-04-06T16:35:16.607Z,22.89
2019-04-06T16:37:52.648Z,22.89
2019-04-06T16:40:22.670Z,23.32
2019-04-06T16:43:08.728Z,22.66
2019-04-06T16:45:47.603Z,21.93
2019-04-06T16:48:33.967Z,22.46
2019-04-06T16:51:06.610Z,22.10
2019-04-06T16:53:39.556Z,22.57
2019-04-06T16:56:09.823Z,21.62
2019-04-06T16:58:45.858Z,20.08
2019-04-06T17:01:18.898Z,21.28
2019-04-06T17:03:51.529Z,21.04
2019-04-06T17:06:24.190Z,21.46
2019-04-06T17:08:56.713Z,20.74
2019-04-06T17:11:36.263Z,20.28
2019-04-06T17:14:06.643Z,20.31
2019-04-06T17:16:46.512Z,19.57
2019-04-06T17:19:16.656Z,19.24
2019-04-06T17:21:46.988Z,19.46
2019-04-06T17:24:28.563Z,17.28
2019-04-06T17:27:07.436Z,16.88
2019-04-06T17:29:40.502Z,16.49
2019-04-06T17:32:13.703Z,16.09
2019-04-06T17:34:54.420Z,15.95
2019-04-06T17:37:24.025Z,15.47
2019-04-06T17:40:12.334Z,15.61
2019-04-06T17:42:45.906Z,15.17
2019-04-06T17:45:33.937Z,14.90
2019-04-06T17:48:12.517Z,14.80
2019-04-06T17:50:42.466Z,14.64
2019-04-06T17:53:20.944Z,14.50
2019-04-06T17:56:06.065Z,14.34
2019-04-06T17:58:36.104Z,14.37
2019-04-06T18:01:11.862Z,14.09
2019-04-06T18:03:59.970Z,14.05
2019-04-06T18:06:46.242Z,14.06
2019-04-06T18:09:28.154Z,13.97
2019-04-06T18:12:14.020Z,13.85
2019-04-06T18:14:42.855Z,13.87
2019-04-06T18:17:11.398Z,13.68
2019-04-06T18:19:40.087Z,13.61
2019-04-06T18:22:08.863Z,13.59
2019-04-06T18:24:37.414Z,13.47
2019-04-06T18:27:06.415Z,13.40
2019-04-06T18:29:35.287Z,13.37
2019-04-06T18:32:05.293Z,13.36
2019-04-06T18:34:33.630Z,13.28
2019-04-06T18:37:03.682Z,13.18
2019-04-06T18:39:32.445Z,13.10
2019-04-06T18:42:00.942Z,13.08
2019-04-06T18:44:29.743Z,13.09
2019-04-06T18:46:58.407Z,12.94
2019-04-06T18:49:27.594Z,12.97
2019-04-06T18:51:56.077Z,12.94
2019-04-06T18:54:24.791Z,12.89
2019-04-06T18:56:53.398Z,12.87
2019-04-06T18:59:21.846Z,12.89
2019-04-06T19:01:50.797Z,12.77
2019-04-06T19:04:19.431Z,12.67
2019-04-06T19:06:48.162Z,12.57
2019-04-06T19:09:23.559Z,12.53
2019-04-06T19:11:54.321Z,12.54
2019-04-06T19:14:16.964Z,12.52
2019-04-06T19:16:45.891Z,12.39
2019-04-06T19:19:14.565Z,12.40
2019-04-06T19:21:43.690Z,12.37
2019-04-06T19:24:12.228Z,12.29
2019-04-06T19:26:41.029Z,12.20
2019-04-06T19:29:10.817Z,12.15
2019-04-06T19:31:39.238Z,12.17
2019-04-06T19:34:07.668Z,12.10
2019-04-06T19:36:36.258Z,12.05
2019-04-06T19:39:07.919Z,12.03
2019-04-06T19:41:36.293Z,11.99
2019-04-06T19:44:04.884Z,12.03
2019-04-06T19:46:33.973Z,11.79
2019-04-06T19:49:02.922Z,12.09
2019-04-06T19:51:32.064Z,12.47
2019-04-06T19:54:04.345Z,11.91
2019-04-06T19:56:31.314Z,11.82
2019-04-06T19:58:59.684Z,11.65
2019-04-06T20:01:28.113Z,11.72
2019-04-06T20:03:56.382Z,11.69
2019-04-06T20:06:24.958Z,11.75
2019-04-06T20:08:53.277Z,11.58
2019-04-06T20:11:22.023Z,11.65
2019-04-06T20:13:50.667Z,11.55
2019-04-06T20:16:20.070Z,11.49
2019-04-06T20:18:49.048Z,11.49
2019-04-06T20:21:17.675Z,11.41
2019-04-06T20:23:45.977Z,11.34
2019-04-06T20:26:14.317Z,11.28
2019-04-06T20:28:42.667Z,11.34
2019-04-06T20:31:11.548Z,11.27
2019-04-06T20:33:48.151Z,11.26
2019-04-06T20:36:10.400Z,11.20
2019-04-06T20:38:39.057Z,11.15
2019-04-06T20:41:07.414Z,11.21
2019-04-06T20:43:35.717Z,11.14
2019-04-06T20:46:04.767Z,11.10
2019-04-06T20:48:34.661Z,11.08
2019-04-06T20:51:03.142Z,11.06
2019-04-06T20:53:31.568Z,11.09
2019-04-06T20:56:00.684Z,11.00
2019-04-06T20:58:29.286Z,10.92
2019-04-06T21:00:57.680Z,10.92
2019-04-06T21:03:26.547Z,10.83
2019-04-06T21:05:57.234Z,11.03
2019-04-06T21:08:25.870Z,10.92
2019-04-06T21:10:54.213Z,11.02
2019-04-06T21:13:22.582Z,10.82
2019-04-06T21:15:51.030Z,10.82
2019-04-06T21:18:19.450Z,10.73
2019-04-06T21:20:48.007Z,10.80
2019-04-06T21:23:17.200Z,10.65
2019-04-06T21:25:45.712Z,10.79
2019-04-06T21:28:14.437Z,10.80
2019-04-06T21:30:43.160Z,10.67
2019-04-06T21:33:12.269Z,11.80
2019-04-06T21:35:40.811Z,10.61
2019-04-06T21:38:09.221Z,10.66
2019-04-06T21:40:38.542Z,10.61
2019-04-06T21:43:07.132Z,10.69
2019-04-06T21:45:35.912Z,10.62
2019-04-06T21:48:05.075Z,10.79
2019-04-06T21:50:33.426Z,10.79
2019-04-06T21:53:01.732Z,10.87
2019-04-06T21:55:30.080Z,10.79
2019-04-06T21:57:58.419Z,10.64
2019-04-06T22:00:43.716Z,10.55
2019-04-06T22:03:12.164Z,10.60
2019-04-06T22:05:41.059Z,10.49
2019-04-06T22:08:09.415Z,10.50
2019-04-06T22:10:37.908Z,10.36
2019-04-06T22:13:07.372Z,10.70
2019-04-06T22:15:36.139Z,10.48
2019-04-06T22:18:06.122Z,10.38
2019-04-06T22:20:34.754Z,10.78
2019-04-06T22:23:03.056Z,10.41
2019-04-06T22:25:31.370Z,10.87
2019-04-06T22:27:59.723Z,10.31
2019-04-06T22:30:28.116Z,10.18
2019-04-06T22:32:56.575Z,10.28
2019-04-06T22:35:24.970Z,10.37
2019-04-06T22:37:55.232Z,10.21
2019-04-06T22:40:23.452Z,10.16
2019-04-06T22:42:51.913Z,10.12
2019-04-06T22:45:21.952Z,10.07
2019-04-06T22:47:50.815Z,10.12
2019-04-06T22:50:19.902Z,10.17
2019-04-06T22:52:48.877Z,10.14
2019-04-06T22:55:17.675Z,9.97
2019-04-06T22:57:46.628Z,10.14
2019-04-06T23:00:18.404Z,10.07
2019-04-06T23:05:51.799Z,10.11
2019-04-06T23:08:20.313Z,10.02
2019-04-06T23:10:48.801Z,9.90
2019-04-06T23:13:17.706Z,9.90
2019-04-06T23:15:47.925Z,9.85
2019-04-06T23:18:16.553Z,10.00
2019-04-06T23:20:44.874Z,10.02
2019-04-06T23:23:14.245Z,9.97
2019-04-06T23:25:42.669Z,9.81
2019-04-06T23:28:11.797Z,9.64
2019-04-06T23:30:40.106Z,9.79
2019-04-06T23:33:08.520Z,9.81
2019-04-06T23:35:36.965Z,9.76
2019-04-06T23:38:05.788Z,9.66
2019-04-06T23:40:34.274Z,9.59
2019-04-06T23:43:02.889Z,9.66
2019-04-06T23:45:31.179Z,9.50
2019-04-06T23:47:59.620Z,9.55
2019-04-06T23:50:28.194Z,9.34
2019-04-06T23:52:57.267Z,9.31
2019-04-06T23:55:26.127Z,9.50
2019-04-06T23:57:54.690Z,9.22
